Motoplanete

Classement Octo Grand Prix d'Angleterre Moto2 2015

Course disputée sur le circuit de Silverstone Circuit

Position Numéro Pilote Team Temps Tours Points Départ
1 5 Johann Zarco Ajo Motorsport 19:54:34 18 25 3
2 40 Alex Rins Paginas Amarillas Hp 40 20:50:34 18 20 2
3 1 Tito Rabat Eg 0,0 Marc Vds 21:26:41 18 16 4
4 73 Alex Marquez Eg 0,0 Marc Vds 21:42:43 18 13 9
5 94 Jonas Folger Agr Team 22:11:42 18 11 7
6 22 Sam Lowes Speed Up 03:45:35 18 10 1
7 95 Anthony West QMMF Racing Team 05:19:36 18 9 22
8 11 Sandro Cortese Dynavolt Intact Gp 05:20:13 18 8 10
9 12 Thomas Luthi Derendinger Racing Interwetten 05:36:03 18 7 5
10 88 Ricard Cardus Tech 3 05:39:18 18 6 23
11 23 Marcel Schrotter Tech 3 06:41:28 18 5 18
12 4 Randy Krummenacher Jir Racing Team 06:47:44 18 4 14
13 77 Dominique Aegerter Technomag Racing Interwetten 09:10:54 18 3 11
14 30 Takaaki Nakagami Idemitsu Honda Team Asia 11:46:17 18 2 6
15 49 Alex Pons Agr Team 12:35:45 18 1 13
16 55 Hafizh Syahrin Petronas Raceline Malaysia 13:12:22 18 0 12
17 39 Luis Salom Paginas Amarillas Hp 40 13:47:43 18 0 17
18 60 Julian Simon QMMF Racing Team 13:54:40 18 0 16
19 25 Azlan Shah Idemitsu Honda Team Asia 14:46:24 18 0 20
20 36 Mika Kallio Italtrans Racing Team 14:57:48 18 0 19
21 2 Jesko Raffin Sports-millions-emwe-sag 15:37:04 18 0 25
22 97 Xavi Vierge Tech 3 15:43:48 18 0 24
23 70 Robin Mulhauser Technomag Racing Interwetten 23:32:25 18 0 28
24 66 Florian Alt Octo Iodaracing Team 02:49:59 18 0 29
25 19 Xavier Simeon Federal Oil Gresini Moto2 20:50:59 17 0 21
26 64 Frederico Caricasulo Italtrans Racing Team 07:55:08 17 0 30
27 96 Louis Rossi Tasca Racing Scuderia Moto2 21:07:00 16 0 26
28 10 Thitipong Warokorn Aph Ptt The Pizza Sag 17:23:14 16 0 27
29 3 Simone Corsi Athinà Forward Racing 06:02:57 13 0 15
30 7 Lorenzo Baldassarri Athinà Forward Racing 16:54:42 13 0 8
31 28 Bradley Ray Fab-racing 14:27:06 2 0 31